Time;durP1;ratioP1;P1;durP2;ratioP2;P2;SDS_P1;SDS_P2;PMS_P1;PMS_P2;Temp;Humidity;BMP_temperature;BMP_pressure;BME280_temperature;BME280_humidity;BME280_pressure;Samples;Min_cycle;Max_cycle;Signal;HPM_P1;HPM_P2
2024/01/10 00:00:06;;;;;;;7.45;2.72;;;;;;;-5.16;68.66;94882.31;5086414;28;20016;-74
2024/01/10 00:02:32;;;;;;;5.30;2.63;;;;;;;-5.21;68.71;94892.50;5086709;28;20103;-74
2024/01/10 00:04:57;;;;;;;7.88;2.90;;;;;;;-5.24;69.09;94880.66;5102285;28;20027;-75
2024/01/10 00:07:22;;;;;;;4.18;2.20;;;;;;;-5.29;69.17;94887.41;5086557;28;20231;-74
2024/01/10 00:09:48;;;;;;;7.22;2.58;;;;;;;-5.35;69.50;94885.56;5086430;28;20016;-75
2024/01/10 00:12:13;;;;;;;11.77;3.53;;;;;;;-5.39;69.79;94892.16;5086228;28;20106;-75
2024/01/10 00:14:39;;;;;;;8.40;2.50;;;;;;;-5.34;69.43;94889.78;5086188;28;20027;-75
2024/01/10 00:17:04;;;;;;;6.47;2.50;;;;;;;-5.31;69.24;94894.59;5085903;28;20365;-75
2024/01/10 00:19:30;;;;;;;5.47;2.47;;;;;;;-5.33;69.14;94881.00;5086024;28;20016;-75
2024/01/10 00:21:55;;;;;;;9.00;2.47;;;;;;;-5.29;69.27;94887.41;5085810;28;20024;-75
2024/01/10 00:24:21;;;;;;;10.85;2.45;;;;;;;-5.30;69.75;94901.41;5086074;28;20013;-75
2024/01/10 00:26:46;;;;;;;7.32;2.70;;;;;;;-5.31;69.65;94905.81;5086269;28;20021;-75
2024/01/10 00:29:12;;;;;;;9.38;2.40;;;;;;;-5.29;70.06;94903.00;5085943;28;20044;-75
2024/01/10 00:31:37;;;;;;;7.93;2.97;;;;;;;-5.20;69.89;94895.91;5085867;28;20219;-76
2024/01/10 00:34:03;;;;;;;5.78;2.65;;;;;;;-5.14;69.62;94900.34;5085818;28;20319;-75
2024/01/10 00:36:28;;;;;;;7.72;3.05;;;;;;;-5.09;69.65;94895.34;5085370;28;20063;-75
2024/01/10 00:38:53;;;;;;;6.90;2.83;;;;;;;-5.07;69.11;94896.78;5085688;28;20016;-75
2024/01/10 00:41:19;;;;;;;5.78;2.85;;;;;;;-5.08;69.72;94909.97;5085980;28;20062;-75
2024/01/10 00:43:44;;;;;;;6.78;2.38;;;;;;;-5.02;68.79;94898.03;5086147;28;20328;-74
2024/01/10 00:46:10;;;;;;;13.05;3.10;;;;;;;-5.04;68.65;94896.41;5085589;28;20017;-75
2024/01/10 00:48:35;;;;;;;8.48;2.65;;;;;;;-5.05;68.64;94896.59;5085943;28;20091;-75
2024/01/10 00:51:00;;;;;;;5.35;2.85;;;;;;;-5.01;68.29;94899.59;5085880;28;20020;-75
2024/01/10 00:53:26;;;;;;;6.28;2.90;;;;;;;-4.99;68.84;94908.03;5085884;28;20020;-75
2024/01/10 00:55:51;;;;;;;8.25;3.42;;;;;;;-5.06;68.97;94900.97;5085803;28;20207;-76
2024/01/10 00:58:17;;;;;;;9.15;3.65;;;;;;;-5.07;69.41;94895.97;5085331;28;20069;-75
2024/01/10 01:00:42;;;;;;;12.02;3.33;;;;;;;-5.10;69.73;94897.16;5084223;28;20024;-75
2024/01/10 01:03:08;;;;;;;6.88;3.22;;;;;;;-5.21;69.03;94910.69;5086032;28;20035;-75
2024/01/10 01:05:33;;;;;;;6.88;3.38;;;;;;;-5.23;69.77;94904.88;5085700;28;20087;-75
2024/01/10 01:07:58;;;;;;;7.18;3.25;;;;;;;-5.30;69.75;94906.63;5085350;28;20021;-75
2024/01/10 01:10:24;;;;;;;11.68;3.20;;;;;;;-5.35;70.25;94899.41;5085294;28;20226;-75
2024/01/10 01:12:49;;;;;;;7.20;3.58;;;;;;;-5.47;69.75;94895.69;5085248;28;20023;-75
2024/01/10 01:15:15;;;;;;;13.20;3.50;;;;;;;-5.53;70.65;94897.25;5085476;28;20020;-75
2024/01/10 01:17:40;;;;;;;7.90;3.10;;;;;;;-5.56;70.36;94899.41;5085456;28;20099;-75
2024/01/10 01:20:06;;;;;;;7.97;3.75;;;;;;;-5.55;71.64;94894.03;5084161;28;20032;-75
2024/01/10 01:22:32;;;;;;;11.57;4.13;;;;;;;-5.58;71.93;94899.59;5085255;28;20075;-75
2024/01/10 01:24:58;;;;;;;8.18;3.72;;;;;;;-5.54;71.87;94903.44;5085211;28;20028;-75
2024/01/10 01:27:23;;;;;;;14.13;4.25;;;;;;;-5.52;72.26;94887.66;5084941;28;20024;-75
2024/01/10 01:29:49;;;;;;;8.35;4.03;;;;;;;-5.58;72.11;94898.78;5085157;28;20039;-75
2024/01/10 01:32:14;;;;;;;11.02;4.32;;;;;;;-5.61;72.25;94889.59;5084781;28;20032;-75
2024/01/10 01:34:40;;;;;;;8.52;4.28;;;;;;;-5.62;72.52;94895.75;5084989;28;20078;-75
2024/01/10 01:37:05;;;;;;;8.90;4.07;;;;;;;-5.60;72.15;94888.59;5084792;28;20159;-75
2024/01/10 01:39:31;;;;;;;7.20;4.07;;;;;;;-5.62;72.01;94885.38;5084456;28;20372;-75
2024/01/10 01:41:56;;;;;;;13.55;4.80;;;;;;;-5.67;72.38;94885.94;5084304;28;20016;-74
2024/01/10 01:44:22;;;;;;;9.63;4.13;;;;;;;-5.66;72.17;94884.13;5083313;28;20051;-75
2024/01/10 01:46:48;;;;;;;12.07;4.45;;;;;;;-5.61;72.35;94883.59;5084439;28;20226;-75
2024/01/10 01:49:14;;;;;;;12.15;3.88;;;;;;;-5.63;71.87;94881.19;5084173;28;20024;-75
2024/01/10 01:51:40;;;;;;;7.15;3.67;;;;;;;-5.58;71.67;94884.00;5084389;28;20023;-75
2024/01/10 01:54:11;;;;;;;14.77;4.72;;;;;;;-5.58;72.04;94884.00;5083960;28;20025;-76
2024/01/10 01:56:37;;;;;;;7.28;3.83;;;;;;;-5.63;72.03;94876.00;5084318;28;20040;-75
2024/01/10 01:59:04;;;;;;;9.52;4.38;;;;;;;-5.69;71.99;94876.75;5084161;28;20104;-75
2024/01/10 02:01:29;;;;;;;11.98;4.47;;;;;;;-5.76;72.07;94865.47;5083832;28;20032;-75
2024/01/10 02:03:55;;;;;;;11.27;4.65;;;;;;;-5.76;72.34;94865.47;5083798;28;20066;-76
2024/01/10 02:06:20;;;;;;;9.95;4.68;;;;;;;-5.77;72.40;94858.69;5083685;28;20027;-75
2024/01/10 02:08:46;;;;;;;6.22;3.95;;;;;;;-5.81;72.24;94870.44;5083633;28;20322;-75
2024/01/10 02:11:11;;;;;;;8.73;3.78;;;;;;;-5.81;72.40;94857.47;5083725;28;20063;-75
2024/01/10 02:13:37;;;;;;;9.93;4.22;;;;;;;-5.77;72.49;94853.50;5083470;28;20039;-75
2024/01/10 02:16:04;;;;;;;6.90;3.45;;;;;;;-5.80;72.79;94854.69;5083560;28;20032;-75
2024/01/10 02:18:30;;;;;;;7.90;3.63;;;;;;;-5.81;72.45;94857.47;5083622;28;20020;-75
2024/01/10 02:20:57;;;;;;;7.65;3.65;;;;;;;-5.87;71.40;94849.41;5083496;28;20341;-75
2024/01/10 02:23:23;;;;;;;5.93;3.55;;;;;;;-5.91;72.28;94855.97;5083458;28;20376;-76
2024/01/10 02:25:49;;;;;;;8.80;3.97;;;;;;;-5.87;72.64;94864.19;5083621;28;20040;-76
2024/01/10 02:28:14;;;;;;;7.93;3.42;;;;;;;-5.86;72.36;94855.44;5082221;28;20271;-77
2024/01/10 02:30:39;;;;;;;6.93;3.35;;;;;;;-5.86;72.81;94861.41;5083497;28;20319;-76
2024/01/10 02:33:05;;;;;;;7.78;3.78;;;;;;;-5.93;72.50;94851.97;5083287;28;20063;-76
2024/01/10 02:35:32;;;;;;;12.15;3.72;;;;;;;-5.97;72.74;94855.94;5083307;28;20047;-76
2024/01/10 02:37:58;;;;;;;9.00;4.10;;;;;;;-6.01;72.72;94854.72;5083112;28;20031;-76
2024/01/10 02:40:24;;;;;;;6.28;3.40;;;;;;;-6.00;72.92;94861.50;5083283;28;20032;-77
2024/01/10 02:42:50;;;;;;;8.80;2.80;;;;;;;-6.05;72.62;94862.84;5083045;28;20034;-76
2024/01/10 02:45:16;;;;;;;7.45;3.47;;;;;;;-6.01;73.22;94859.91;5083128;28;20044;-76
2024/01/10 02:47:42;;;;;;;9.35;3.20;;;;;;;-6.01;72.83;94859.91;5083287;28;20024;-76
2024/01/10 02:50:07;;;;;;;6.35;2.72;;;;;;;-6.01;72.23;94867.69;5083250;28;20031;-77
2024/01/10 02:52:33;;;;;;;7.40;3.00;;;;;;;-6.04;71.91;94868.88;5082695;28;20070;-76
2024/01/10 02:54:58;;;;;;;9.15;3.30;;;;;;;-6.04;72.28;94855.91;5082934;28;20159;-76
2024/01/10 02:57:24;;;;;;;7.15;2.70;;;;;;;-6.08;72.24;94865.84;5083177;28;20021;-76
2024/01/10 02:59:49;;;;;;;9.55;3.00;;;;;;;-6.08;72.75;94868.44;5082873;28;20315;-75
2024/01/10 03:02:15;;;;;;;5.45;2.92;;;;;;;-6.08;72.16;94871.03;5082906;28;20020;-75
2024/01/10 03:04:41;;;;;;;6.60;2.63;;;;;;;-6.10;72.18;94874.81;5083011;28;20016;-76
2024/01/10 03:07:06;;;;;;;13.10;3.05;;;;;;;-6.08;72.35;94860.66;5082844;28;20020;-76
2024/01/10 03:09:31;;;;;;;5.97;2.42;;;;;;;-6.06;72.35;94863.06;5082700;28;20092;-76
2024/01/10 03:11:57;;;;;;;6.72;2.55;;;;;;;-6.02;71.99;94866.91;5082820;28;20059;-76
2024/01/10 03:14:22;;;;;;;12.73;2.80;;;;;;;-6.03;72.27;94854.88;5082737;28;20428;-76
2024/01/10 03:16:48;;;;;;;7.90;3.05;;;;;;;-5.97;72.91;94864.53;5082642;28;20028;-76
2024/01/10 03:19:13;;;;;;;6.80;3.13;;;;;;;-5.87;73.52;94864.19;5082680;28;20092;-76
2024/01/10 03:21:39;;;;;;;7.18;3.35;;;;;;;-5.79;73.09;94868.47;5082895;28;20024;-76
2024/01/10 03:24:05;;;;;;;7.40;3.45;;;;;;;-5.70;72.11;94864.72;5084588;28;20031;-76
2024/01/10 03:26:30;;;;;;;26.92;9.88;;;;;;;-5.61;71.44;94874.00;5089370;28;20028;-75
2024/01/10 03:28:57;;;;;;;11.40;4.13;;;;;;;-5.55;70.33;94867.25;5089361;28;20023;-76
2024/01/10 03:31:22;;;;;;;9.25;3.22;;;;;;;-5.52;70.00;94867.66;5089245;28;20142;-76
2024/01/10 03:33:48;;;;;;;5.93;2.92;;;;;;;-5.47;70.33;94870.53;5088160;28;20023;-76
2024/01/10 03:36:15;;;;;;;8.70;2.50;;;;;;;-5.37;69.21;94874.56;5089124;28;20016;-76
2024/01/10 03:38:41;;;;;;;6.53;3.03;;;;;;;-5.36;69.51;94865.78;5089340;28;20029;-76
2024/01/10 03:41:07;;;;;;;7.28;3.55;;;;;;;-5.31;69.22;94876.41;5089395;28;20062;-76
2024/01/10 03:43:32;;;;;;;5.80;2.53;;;;;;;-5.29;69.41;94867.44;5089183;28;20033;-76
2024/01/10 03:45:58;;;;;;;7.82;3.50;;;;;;;-5.22;69.39;94862.28;5089182;28;20042;-75
2024/01/10 03:48:23;;;;;;;6.43;2.83;;;;;;;-5.25;69.25;94868.69;5089086;28;20048;-76
2024/01/10 03:50:49;;;;;;;8.13;3.20;;;;;;;-5.28;69.39;94869.03;5089284;28;20035;-76
2024/01/10 03:53:14;;;;;;;5.15;2.47;;;;;;;-5.36;69.34;94871.00;5088989;28;20028;-76
2024/01/10 03:55:40;;;;;;;6.70;2.50;;;;;;;-5.46;69.35;94869.50;5089285;28;20044;-75
2024/01/10 03:58:06;;;;;;;6.00;2.25;;;;;;;-5.53;70.03;94879.06;5089050;28;20024;-76
2024/01/10 04:00:31;;;;;;;8.75;3.28;;;;;;;-5.55;69.81;94873.25;5088941;28;20020;-76
2024/01/10 04:02:56;;;;;;;6.90;2.42;;;;;;;-5.54;70.05;94874.06;5088883;28;20377;-76
2024/01/10 04:05:24;;;;;;;7.82;2.45;;;;;;;-5.54;70.31;94874.06;5088987;28;20032;-76
2024/01/10 04:07:50;;;;;;;6.13;2.58;;;;;;;-5.54;70.12;94874.06;5088912;28;20223;-76
2024/01/10 04:10:15;;;;;;;6.80;2.50;;;;;;;-5.55;69.03;94881.06;5089074;28;20035;-76
2024/01/10 04:12:42;;;;;;;6.38;2.67;;;;;;;-5.57;68.87;94885.63;5088865;28;20068;-76
2024/01/10 04:15:09;;;;;;;7.10;2.88;;;;;;;-5.56;68.42;94884.63;5088864;28;20090;-75
2024/01/10 04:17:35;;;;;;;5.53;2.45;;;;;;;-5.58;67.40;94880.63;5088793;28;20032;-76
2024/01/10 04:20:01;;;;;;;6.07;2.65;;;;;;;-5.62;66.51;94881.97;5088764;28;20088;-76
2024/01/10 04:22:26;;;;;;;9.68;2.80;;;;;;;-5.65;66.64;94893.56;5088556;28;20276;-76
2024/01/10 04:24:52;;;;;;;5.95;2.35;;;;;;;-5.66;67.32;94879.78;5088911;28;20223;-76
2024/01/10 04:27:20;;;;;;;10.85;2.25;;;;;;;-5.61;67.29;94889.59;5088865;28;20435;-76
2024/01/10 04:29:46;;;;;;;9.30;3.00;;;;;;;-5.62;67.18;94892.38;5088897;28;20024;-76
2024/01/10 04:32:11;;;;;;;5.07;1.95;;;;;;;-5.72;66.37;94895.28;5088866;28;20273;-76
2024/01/10 04:34:36;;;;;;;5.90;2.03;;;;;;;-5.74;66.30;94895.50;5088615;28;20046;-75
2024/01/10 04:37:02;;;;;;;6.00;2.20;;;;;;;-5.82;66.15;94902.56;5084305;28;20104;-76
2024/01/10 04:39:28;;;;;;;5.93;2.47;;;;;;;-5.85;66.16;94904.56;5085703;28;20032;-76
2024/01/10 04:41:53;;;;;;;4.97;2.25;;;;;;;-5.90;66.56;94906.91;5085628;28;20029;-75
2024/01/10 04:44:19;;;;;;;10.18;3.03;;;;;;;-5.95;66.56;94913.69;5085183;28;20091;-75
2024/01/10 04:46:44;;;;;;;4.93;1.90;;;;;;;-5.97;66.01;94916.44;5084312;28;20024;-75
2024/01/10 04:49:10;;;;;;;4.70;2.35;;;;;;;-5.98;66.12;94914.84;5085539;28;20024;-76
2024/01/10 04:51:35;;;;;;;4.43;2.00;;;;;;;-5.98;66.05;94916.63;5085248;28;20024;-76
2024/01/10 04:54:01;;;;;;;7.93;2.70;;;;;;;-5.99;66.34;94918.44;5085027;28;20223;-75
2024/01/10 04:56:26;;;;;;;6.88;2.83;;;;;;;-6.03;66.67;94927.56;5084123;28;20055;-76
2024/01/10 04:58:52;;;;;;;6.90;2.58;;;;;;;-5.94;66.31;94923.03;5084889;28;20082;-75
2024/01/10 05:01:18;;;;;;;9.18;2.33;;;;;;;-5.96;66.59;94923.28;5084845;28;20055;-76
2024/01/10 05:03:43;;;;;;;7.40;2.25;;;;;;;-5.96;66.31;94922.44;5084888;28;20012;-76
2024/01/10 05:06:09;;;;;;;4.97;2.13;;;;;;;-5.90;66.53;94921.69;5085049;28;20048;-76
2024/01/10 05:08:34;;;;;;;6.03;2.63;;;;;;;-5.87;65.96;94916.91;5085009;28;20051;-76
2024/01/10 05:10:59;;;;;;;8.23;2.53;;;;;;;-5.89;66.25;94912.91;5083491;28;20040;-76
2024/01/10 05:13:25;;;;;;;8.05;2.60;;;;;;;-5.93;66.70;94917.66;5084872;28;20135;-76
2024/01/10 05:15:50;;;;;;;6.15;2.30;;;;;;;-5.90;67.03;94925.09;5084770;28;20025;-75
2024/01/10 05:18:16;;;;;;;7.68;2.80;;;;;;;-5.96;66.13;94928.47;5084899;28;20048;-76
2024/01/10 05:20:42;;;;;;;8.90;2.72;;;;;;;-5.91;66.43;94922.69;5084957;28;20016;-76
2024/01/10 05:23:07;;;;;;;5.82;2.45;;;;;;;-5.88;66.97;94925.72;5084955;28;20036;-75
2024/01/10 05:25:32;;;;;;;5.55;2.63;;;;;;;-5.91;67.10;94928.66;5084881;28;20058;-74
2024/01/10 05:27:58;;;;;;;5.97;2.28;;;;;;;-5.91;67.00;94933.06;5084690;28;20028;-75
2024/01/10 05:30:24;;;;;;;4.60;2.47;;;;;;;-5.89;66.55;94938.88;5084408;28;20211;-75
2024/01/10 05:32:49;;;;;;;5.38;2.58;;;;;;;-5.95;65.95;94937.84;5084425;28;20092;-75
2024/01/10 05:35:15;;;;;;;4.65;2.75;;;;;;;-6.03;65.82;94932.75;5084594;28;20032;-75
2024/01/10 05:37:40;;;;;;;6.90;2.30;;;;;;;-6.05;66.43;94939.94;5084822;28;20043;-74
2024/01/10 05:40:06;;;;;;;10.48;3.53;;;;;;;-6.00;66.72;94948.00;5084646;28;20052;-75
2024/01/10 05:42:32;;;;;;;7.45;3.08;;;;;;;-6.07;66.61;94945.28;5084503;28;20024;-75
2024/01/10 05:44:59;;;;;;;9.00;2.88;;;;;;;-6.00;66.84;94937.59;5084867;28;20104;-75
2024/01/10 05:47:25;;;;;;;6.65;3.00;;;;;;;-5.93;67.07;94943.63;5084409;28;20107;-75
2024/01/10 05:49:52;;;;;;;7.47;2.38;;;;;;;-5.87;67.00;94948.06;5084388;28;20290;-75
2024/01/10 05:52:18;;;;;;;8.13;3.72;;;;;;;-5.85;66.92;94934.91;5084626;28;20020;-75
2024/01/10 05:54:44;;;;;;;9.52;3.38;;;;;;;-5.76;66.84;94945.97;5084549;28;20031;-75
2024/01/10 05:57:09;;;;;;;8.93;3.25;;;;;;;-5.75;67.16;94945.00;5084687;28;20077;-75
2024/01/10 05:59:35;;;;;;;6.72;3.33;;;;;;;-5.71;67.28;94943.66;5084420;28;20016;-75
2024/01/10 06:02:02;;;;;;;8.88;3.35;;;;;;;-5.73;66.74;94954.22;5084143;28;20021;-75
2024/01/10 06:04:30;;;;;;;9.82;3.42;;;;;;;-5.72;67.04;94952.41;5084097;28;20246;-75
2024/01/10 06:06:58;;;;;;;6.80;2.90;;;;;;;-5.70;67.05;94961.66;5084214;28;20024;-75
2024/01/10 06:09:23;;;;;;;8.98;3.75;;;;;;;-5.68;67.50;94948.47;5084079;28;20055;-75
2024/01/10 06:11:49;;;;;;;7.30;3.22;;;;;;;-5.66;66.85;94955.09;5083996;28;20088;-76
2024/01/10 06:14:14;;;;;;;9.60;4.28;;;;;;;-5.64;66.94;94957.47;5083967;28;20071;-76
2024/01/10 06:16:40;;;;;;;7.35;3.50;;;;;;;-5.61;66.70;94967.53;5083862;28;20028;-75
2024/01/10 06:19:06;;;;;;;13.88;3.63;;;;;;;-5.59;67.10;94959.56;5083790;28;20036;-75
2024/01/10 06:21:31;;;;;;;7.50;3.15;;;;;;;-5.57;67.10;94968.75;5082679;28;20232;-76
2024/01/10 06:23:57;;;;;;;10.23;3.80;;;;;;;-5.55;67.40;94961.59;5083702;28;20026;-75
2024/01/10 06:26:22;;;;;;;10.68;3.28;;;;;;;-5.52;66.95;94966.38;5083553;28;20035;-74
2024/01/10 06:28:48;;;;;;;8.52;3.47;;;;;;;-5.48;66.04;94972.81;5083710;28;20025;-75
2024/01/10 06:31:13;;;;;;;10.95;2.75;;;;;;;-5.47;65.70;94976.25;5083697;28;20066;-74
2024/01/10 06:33:39;;;;;;;8.00;3.13;;;;;;;-5.49;65.54;94981.63;5083858;28;20192;-74
2024/01/10 06:36:04;;;;;;;8.55;3.70;;;;;;;-5.50;66.00;94984.41;5083644;28;20318;-74
2024/01/10 06:38:30;;;;;;;6.20;3.15;;;;;;;-5.45;66.48;94982.06;5083441;28;20297;-74
2024/01/10 06:40:55;;;;;;;9.60;3.03;;;;;;;-5.37;67.19;94975.91;5083595;28;20279;-74
2024/01/10 06:43:21;;;;;;;7.78;3.40;;;;;;;-5.36;65.23;94986.13;5083243;28;20027;-74
2024/01/10 06:45:47;;;;;;;7.43;2.85;;;;;;;-5.32;65.50;94986.56;5083300;28;20043;-74
2024/01/10 06:48:13;;;;;;;6.75;3.08;;;;;;;-5.32;65.58;94987.34;5083181;28;20025;-74
2024/01/10 06:50:39;;;;;;;6.25;2.60;;;;;;;-5.30;65.45;94989.78;5083494;28;20243;-74
2024/01/10 06:53:04;;;;;;;7.05;3.08;;;;;;;-5.35;65.47;94992.13;5083134;28;20095;-74
2024/01/10 06:55:30;;;;;;;7.22;3.35;;;;;;;-5.36;65.41;94995.72;5083178;28;20023;-74
2024/01/10 06:57:55;;;;;;;7.68;3.47;;;;;;;-5.42;65.42;95001.66;5083084;28;20024;-74
2024/01/10 07:00:22;;;;;;;6.35;3.22;;;;;;;-5.36;65.61;94996.53;5082326;28;20078;-74
2024/01/10 07:02:49;;;;;;;12.82;3.50;;;;;;;-5.36;65.10;94995.72;5082851;28;20016;-74
2024/01/10 07:05:14;;;;;;;6.78;3.33;;;;;;;-5.32;65.28;95005.56;5083218;28;20093;-74
2024/01/10 07:07:41;;;;;;;5.03;2.95;;;;;;;-5.28;65.71;95006.78;5082889;28;20032;-75
2024/01/10 07:10:07;;;;;;;9.57;4.00;;;;;;;-5.27;65.36;94995.41;5082441;28;20119;-75
2024/01/10 07:12:35;;;;;;;8.30;3.67;;;;;;;-5.21;65.31;95003.44;5082824;28;20120;-75
2024/01/10 07:15:03;;;;;;;7.93;3.75;;;;;;;-5.15;65.33;95000.94;5082929;28;20028;-75
2024/01/10 07:17:28;;;;;;;12.30;4.25;;;;;;;-5.22;63.97;95007.84;5083271;28;20357;-75
2024/01/10 07:19:56;;;;;;;8.75;3.30;;;;;;;-5.07;65.25;95006.00;5082914;28;20087;-75
2024/01/10 07:22:22;;;;;;;9.43;4.00;;;;;;;-4.99;64.66;95004.22;5083036;28;20065;-75
2024/01/10 07:24:48;;;;;;;12.73;4.20;;;;;;;-4.94;64.05;95015.69;5082056;28;20115;-75
2024/01/10 07:27:14;;;;;;;8.50;3.65;;;;;;;-4.93;63.03;95019.06;5083177;28;20328;-74
2024/01/10 07:29:42;;;;;;;11.82;4.35;;;;;;;-4.88;62.86;95021.94;5082996;28;20012;-74
2024/01/10 07:32:14;;;;;;;12.32;4.25;;;;;;;-4.88;60.78;95024.53;5083055;28;20016;-75
2024/01/10 07:34:39;;;;;;;10.73;3.93;;;;;;;-4.82;61.32;95022.94;5082893;28;20020;-74
2024/01/10 07:37:05;;;;;;;10.63;4.45;;;;;;;-4.82;61.59;95025.56;5083069;28;20279;-75
2024/01/10 07:39:30;;;;;;;16.38;5.75;;;;;;;-4.85;58.87;95032.75;5082831;28;20027;-75
2024/01/10 07:41:56;;;;;;;14.27;5.32;;;;;;;-4.95;58.22;95031.47;5082765;28;20274;-74
2024/01/10 07:44:21;;;;;;;19.60;4.72;;;;;;;-5.01;58.39;95027.81;5081509;28;20027;-73
2024/01/10 07:46:47;;;;;;;15.48;5.95;;;;;;;-4.99;58.90;95036.22;5082509;28;20199;-73
2024/01/10 07:49:12;;;;;;;14.35;5.80;;;;;;;-5.03;59.11;95035.00;5083149;28;20028;-72
2024/01/10 07:51:38;;;;;;;13.52;5.80;;;;;;;-5.12;58.39;95034.34;5081774;28;20031;-73
2024/01/10 07:54:03;;;;;;;13.13;4.95;;;;;;;-5.14;58.93;95031.13;5082086;28;20020;-73
2024/01/10 07:56:29;;;;;;;14.80;4.53;;;;;;;-4.99;58.12;95035.44;5081657;28;20377;-73
2024/01/10 07:58:55;;;;;;;14.00;3.78;;;;;;;-4.91;57.43;95025.69;5082240;28;20024;-72
2024/01/10 08:01:21;;;;;;;9.77;4.03;;;;;;;-4.92;56.96;95029.31;5082022;28;20039;-72
2024/01/10 08:03:46;;;;;;;11.40;5.03;;;;;;;-4.90;56.17;95032.50;5080717;28;20013;-72
2024/01/10 08:06:13;;;;;;;11.50;4.15;;;;;;;-4.94;55.82;95040.88;5080889;28;20096;-73
2024/01/10 08:08:39;;;;;;;15.15;4.68;;;;;;;-4.87;55.33;95044.34;5080320;28;20020;-72
2024/01/10 08:11:04;;;;;;;10.95;4.22;;;;;;;-4.75;55.56;95039.44;5083655;28;20239;-73
2024/01/10 08:13:32;;;;;;;13.98;4.45;;;;;;;-4.65;54.45;95045.09;5085394;28;20032;-72
2024/01/10 08:15:57;;;;;;;22.08;4.35;;;;;;;-4.53;54.84;95042.78;5085861;28;20087;-72
2024/01/10 08:18:23;;;;;;;8.05;3.50;;;;;;;-4.54;53.49;95041.16;5085865;28;20024;-73
2024/01/10 08:20:49;;;;;;;8.90;3.85;;;;;;;-4.45;54.35;95050.44;5085564;28;20142;-73
2024/01/10 08:23:14;;;;;;;14.43;3.80;;;;;;;-4.35;54.90;95045.72;5085851;28;20245;-73
2024/01/10 08:25:40;;;;;;;8.25;4.68;;;;;;;-4.27;54.44;95042.94;5085913;28;20016;-73
2024/01/10 08:28:06;;;;;;;9.07;3.97;;;;;;;-4.17;54.32;95036.59;5084472;28;20040;-73
2024/01/10 08:30:32;;;;;;;7.80;3.55;;;;;;;-4.14;53.01;95041.41;5085469;28;20024;-73
2024/01/10 08:32:59;;;;;;;9.10;3.15;;;;;;;-4.05;54.23;95041.06;5085652;28;20070;-73
2024/01/10 08:35:24;;;;;;;10.13;3.75;;;;;;;-4.01;51.59;95044.06;5085717;28;20264;-73
2024/01/10 08:37:50;;;;;;;7.78;3.20;;;;;;;-4.11;52.41;95046.22;5085320;28;20028;-73
2024/01/10 08:40:16;;;;;;;7.35;3.28;;;;;;;-4.04;54.43;95042.66;5085337;28;20028;-73
2024/01/10 08:42:42;;;;;;;13.50;4.50;;;;;;;-4.04;54.27;95045.28;5085221;28;20091;-73
2024/01/10 08:45:09;;;;;;;8.30;3.63;;;;;;;-3.93;55.04;95041.34;5085414;28;20025;-73
2024/01/10 08:47:36;;;;;;;8.40;3.92;;;;;;;-3.82;55.16;95045.19;5085446;28;20059;-73
2024/01/10 08:50:08;;;;;;;11.15;4.20;;;;;;;-3.73;55.71;95048.41;5085468;28;20060;-73
2024/01/10 08:52:34;;;;;;;;;;;;;;;-3.77;57.38;95039.38;5085511;28;20028;-72
2024/01/10 08:54:59;;;;;;;8.75;4.15;;;;;;;-3.80;59.07;95047.59;5085143;28;20244;-72
2024/01/10 08:57:26;;;;;;;18.75;5.20;;;;;;;-3.69;59.39;95049.63;5084985;28;20056;-72
2024/01/10 08:59:52;;;;;;;14.30;5.55;;;;;;;-3.73;60.53;95043.19;5085030;28;20032;-72
2024/01/10 09:02:17;;;;;;;12.40;5.13;;;;;;;-3.90;62.88;95037.53;5085033;28;20020;-72
2024/01/10 09:04:43;;;;;;;11.43;4.75;;;;;;;-3.74;62.14;95041.59;5084975;28;20334;-73
2024/01/10 09:07:11;;;;;;;15.77;5.43;;;;;;;-3.62;61.69;95040.03;5085144;28;20047;-73
2024/01/10 09:09:36;;;;;;;13.40;4.80;;;;;;;-3.51;61.53;95042.06;5085006;28;20107;-73
2024/01/10 09:12:03;;;;;;;17.98;4.50;;;;;;;-3.39;61.13;95028.47;5084932;28;20578;-73
2024/01/10 09:14:28;;;;;;;11.90;4.68;;;;;;;-3.30;61.07;95045.53;5084938;28;20047;-73
2024/01/10 09:16:54;;;;;;;10.55;4.00;;;;;;;-3.28;60.65;95044.34;5085039;28;20330;-74
2024/01/10 09:19:20;;;;;;;14.82;3.97;;;;;;;-3.23;60.64;95033.31;5084956;28;20036;-73
2024/01/10 09:21:45;;;;;;;12.40;4.35;;;;;;;-3.29;61.33;95039.31;5084123;28;20063;-73
2024/01/10 09:24:14;;;;;;;9.77;4.43;;;;;;;-3.16;61.73;95039.34;5084787;28;20307;-73
2024/01/10 09:26:40;;;;;;;10.32;5.07;;;;;;;-3.10;60.54;95042.97;5084596;28;20032;-73
2024/01/10 09:29:06;;;;;;;10.48;4.63;;;;;;;-3.08;59.17;95041.75;5084541;28;20035;-73
2024/01/10 09:31:31;;;;;;;8.85;3.92;;;;;;;-3.06;58.79;95034.53;5084324;28;20028;-73
2024/01/10 09:33:57;;;;;;;9.32;4.03;;;;;;;-2.93;59.94;95036.38;5084111;28;20029;-73
2024/01/10 09:36:22;;;;;;;14.07;3.90;;;;;;;-2.79;59.42;95023.31;5084300;28;20024;-73
2024/01/10 09:38:48;;;;;;;9.35;4.28;;;;;;;-2.73;59.55;95025.91;5084298;28;20020;-74
2024/01/10 09:41:15;;;;;;;12.63;4.85;;;;;;;-2.63;59.75;95022.91;5084312;28;20323;-73
2024/01/10 09:43:41;;;;;;;14.32;5.45;;;;;;;-2.53;58.13;95022.50;5084279;28;20279;-73
2024/01/10 09:46:07;;;;;;;14.68;4.82;;;;;;;-2.46;56.00;95023.31;5084105;28;20032;-73
2024/01/10 09:48:33;;;;;;;18.15;4.85;;;;;;;-2.31;55.93;95018.66;5084151;28;20032;-72
2024/01/10 09:50:59;;;;;;;14.57;4.55;;;;;;;-2.25;54.33;95028.28;5084105;28;20077;-73
2024/01/10 09:53:32;;;;;;;10.93;4.68;;;;;;;-2.23;54.03;95031.47;5083758;28;20040;-73
2024/01/10 09:55:59;;;;;;;14.65;3.83;;;;;;;-2.20;54.64;95024.25;5083803;28;20031;-72
2024/01/10 09:58:26;;;;;;;9.32;4.00;;;;;;;-2.16;53.67;95023.63;5083821;28;20024;-72
2024/01/10 10:00:51;;;;;;;14.75;5.70;;;;;;;-2.16;53.97;95017.59;5083557;28;20032;-73
2024/01/10 10:03:18;;;;;;;9.25;4.72;;;;;;;-2.08;53.78;95020.78;5083635;28;20024;-73
2024/01/10 10:05:43;;;;;;;19.65;4.68;;;;;;;-2.05;54.40;95009.16;5083744;28;20031;-73
2024/01/10 10:08:11;;;;;;;8.30;4.35;;;;;;;-1.99;54.85;95007.50;5083540;28;20028;-73
2024/01/10 10:10:42;;;;;;;9.82;4.53;;;;;;;-1.93;55.60;95001.47;5083263;28;20032;-74
2024/01/10 10:13:10;;;;;;;11.50;5.32;;;;;;;-1.84;55.47;95005.44;5083594;28;20032;-74
2024/01/10 10:15:36;;;;;;;10.15;3.88;;;;;;;-1.75;54.93;95004.22;5083392;28;20091;-72
2024/01/10 10:18:02;;;;;;;13.80;4.97;;;;;;;-1.72;54.09;94997.75;5083351;28;20070;-72
2024/01/10 10:20:32;;;;;;;12.15;5.10;;;;;;;-1.71;54.31;94991.50;5082997;28;20024;-73
2024/01/10 10:23:07;;;;;;;16.50;4.97;;;;;;;-1.77;55.67;94985.31;5083412;28;20329;-73
2024/01/10 10:25:50;;;;;;;12.30;4.70;;;;;;;-1.79;54.84;94976.06;5083266;28;20032;-73
2024/01/10 10:28:16;;;;;;;12.80;5.68;;;;;;;-1.83;54.86;94980.94;5083098;28;20039;-73
2024/01/10 10:30:42;;;;;;;13.30;4.60;;;;;;;-1.76;55.28;94975.66;5083199;28;20040;-73
2024/01/10 10:33:08;;;;;;;8.57;4.57;;;;;;;-1.72;55.58;94969.00;5081357;28;20065;-73
2024/01/10 10:35:34;;;;;;;12.73;5.20;;;;;;;-1.68;56.02;94957.13;5082459;28;20235;-73
2024/01/10 10:37:59;;;;;;;10.80;5.30;;;;;;;-1.60;55.16;94951.66;5083007;28;20016;-74
2024/01/10 10:40:25;;;;;;;12.30;4.80;;;;;;;-1.57;55.10;94951.22;5083031;28;20016;-73
2024/01/10 10:42:58;;;;;;;10.65;4.38;;;;;;;-1.44;54.57;94951.13;5083043;28;20028;-73
2024/01/10 10:45:26;;;;;;;14.70;5.63;;;;;;;-1.47;54.99;94948.94;5082892;28;20240;-72
2024/01/10 10:47:57;;;;;;;9.98;5.30;;;;;;;-1.41;55.23;94948.09;5082778;28;20028;-73
2024/01/10 10:50:24;;;;;;;10.18;5.25;;;;;;;-1.37;54.43;94938.00;5082945;28;20020;-73
2024/01/10 10:52:51;;;;;;;16.30;6.07;;;;;;;-1.43;56.68;94937.03;5082888;28;20028;-72
2024/01/10 10:55:17;;;;;;;18.50;6.32;;;;;;;-1.27;57.71;94934.94;5082289;28;20040;-72
2024/01/10 10:57:46;;;;;;;19.80;6.55;;;;;;;-1.09;58.13;94929.75;5082953;28;20030;-72
2024/01/10 11:00:15;;;;;;;17.98;8.07;;;;;;;-0.93;58.61;94931.03;5083038;28;20257;-72
2024/01/10 11:02:41;;;;;;;15.50;6.50;;;;;;;-0.77;58.11;94927.06;5082866;28;20303;-72
2024/01/10 11:05:08;;;;;;;15.40;6.25;;;;;;;-0.68;57.37;94925.78;5082726;28;20059;-72
2024/01/10 11:07:36;;;;;;;12.05;5.30;;;;;;;-0.62;56.35;94927.53;5082954;28;20200;-72
2024/01/10 11:10:11;;;;;;;12.70;6.40;;;;;;;-0.49;53.75;94923.16;5083094;28;20453;-73
2024/01/10 11:13:19;;;;;;;15.35;6.65;;;;;;;-0.42;55.01;94913.44;5082609;28;20125;-72
2024/01/10 11:15:59;;;;;;;13.95;5.90;;;;;;;-0.48;55.88;94914.31;5083012;28;20096;-72
2024/01/10 11:18:57;;;;;;;10.48;6.13;;;;;;;-0.68;55.86;94915.28;5082596;28;20100;-72
2024/01/10 11:21:47;;;;;;;15.98;5.78;;;;;;;-0.39;55.91;94905.13;5082407;28;20027;-72
2024/01/10 11:24:13;;;;;;;14.68;6.72;;;;;;;-0.21;55.51;94914.78;5082866;28;20021;-72
2024/01/10 11:26:38;;;;;;;11.95;6.13;;;;;;;-0.04;54.57;94904.50;5083154;28;20067;-72